Time;durP1;ratioP1;P1;durP2;ratioP2;P2;SDS_P1;SDS_P2;PMS_P1;PMS_P2;Temp;Humidity;BMP_temperature;BMP_pressure;BME280_temperature;BME280_humidity;BME280_pressure;Samples;Min_cycle;Max_cycle;Signal;HPM_P1;HPM_P2
2024/03/10 00:00:44;;;;;;;11.93;8.50;;;9.50;64.30;;;;;;5078793;28;20516;-72
2024/03/10 00:03:04;;;;;;;11.90;8.93;;;9.40;64.20;;;;;;5095225;28;20773;-74
2024/03/10 00:05:29;;;;;;;12.60;9.13;;;9.30;64.30;;;;;;5089212;28;20412;-71
2024/03/10 00:07:55;;;;;;;13.60;8.90;;;9.30;64.40;;;;;;5092476;28;20415;-73
2024/03/10 00:10:20;;;;;;;13.80;9.70;;;9.30;64.30;;;;;;5105414;28;20255;-78
2024/03/10 00:12:49;;;;;;;13.97;9.30;;;9.40;64.30;;;;;;5090184;28;20193;-72
2024/03/10 00:15:15;;;;;;;12.47;8.53;;;9.40;64.30;;;;;;5093773;28;20509;-72
2024/03/10 00:17:42;;;;;;;16.80;9.57;;;9.50;64.30;;;;;;5075401;28;20485;-72
2024/03/10 00:20:08;;;;;;;13.63;8.60;;;9.50;64.10;;;;;;5068679;28;20200;-72
2024/03/10 00:22:38;;;;;;;12.03;8.33;;;9.50;64.00;;;;;;5094404;28;20552;-72
2024/03/10 00:25:08;;;;;;;11.83;8.67;;;9.60;63.80;;;;;;5105370;28;20457;-72
2024/03/10 00:27:36;;;;;;;12.77;8.63;;;9.70;63.80;;;;;;5094629;28;20435;-75
2024/03/10 00:30:04;;;;;;;19.37;6.87;;;9.60;63.70;;;;;;5082569;28;20419;-71
2024/03/10 00:32:31;;;;;;;12.60;8.10;;;9.60;63.70;;;;;;5093527;28;20423;-71
2024/03/10 00:34:57;;;;;;;9.10;7.30;;;9.70;63.80;;;;;;5093316;28;20521;-71
2024/03/10 00:37:23;;;;;;;11.27;8.40;;;9.70;63.80;;;;;;5092778;28;20479;-70
2024/03/10 00:39:48;;;;;;;14.03;8.30;;;9.70;63.60;;;;;;5098525;28;20498;-71
2024/03/10 00:42:14;;;;;;;12.20;8.50;;;9.70;63.40;;;;;;5095798;28;20295;-71
2024/03/10 00:44:41;;;;;;;11.73;7.90;;;9.80;63.40;;;;;;5111778;28;20224;-71
2024/03/10 00:47:07;;;;;;;12.60;8.53;;;9.70;63.20;;;;;;5122986;28;20233;-72
2024/03/10 00:49:33;;;;;;;11.70;9.17;;;9.80;63.20;;;;;;5119048;28;20808;-74
2024/03/10 00:51:59;;;;;;;13.60;8.97;;;9.80;63.20;;;;;;5124874;28;20639;-73
2024/03/10 00:54:25;;;;;;;12.13;8.70;;;9.80;63.10;;;;;;5111743;28;20436;-72
2024/03/10 00:56:51;;;;;;;9.90;7.73;;;9.80;62.90;;;;;;5116858;28;20192;-72
2024/03/10 00:59:16;;;;;;;10.90;7.50;;;9.90;63.10;;;;;;5117214;28;20575;-72
2024/03/10 01:01:42;;;;;;;12.83;8.93;;;9.80;63.00;;;;;;5120854;28;20211;-72
2024/03/10 01:04:08;;;;;;;11.97;7.97;;;9.80;63.10;;;;;;5115544;28;20195;-73
2024/03/10 01:06:34;;;;;;;14.07;8.93;;;9.80;63.10;;;;;;5121818;28;20486;-71
2024/03/10 01:08:59;;;;;;;10.90;8.63;;;9.80;63.20;;;;;;5123505;28;20203;-74
2024/03/10 01:11:26;;;;;;;14.90;8.50;;;9.70;63.20;;;;;;5123210;27;20409;-72
2024/03/10 01:13:52;;;;;;;14.03;8.90;;;9.80;63.30;;;;;;5122914;28;20405;-70
2024/03/10 01:16:18;;;;;;;11.70;8.77;;;9.80;63.40;;;;;;5121238;28;20472;-71
2024/03/10 01:18:44;;;;;;;12.10;8.37;;;9.80;63.30;;;;;;5118829;28;20216;-69
2024/03/10 01:21:10;;;;;;;13.00;8.07;;;9.80;63.30;;;;;;5121345;28;20454;-72
2024/03/10 01:23:35;;;;;;;12.27;8.97;;;9.80;63.40;;;;;;5120695;28;20513;-72
2024/03/10 01:26:01;;;;;;;12.30;8.37;;;9.80;63.50;;;;;;5118004;28;20271;-72
2024/03/10 01:28:27;;;;;;;12.13;8.10;;;9.70;63.50;;;;;;5118764;28;20571;-72
2024/03/10 01:30:53;;;;;;;10.80;7.83;;;9.70;63.60;;;;;;5122250;28;20171;-72
2024/03/10 01:33:18;;;;;;;9.17;7.20;;;9.70;63.60;;;;;;5121622;28;20231;-72
2024/03/10 01:35:44;;;;;;;12.80;8.90;;;9.70;63.40;;;;;;5119574;28;20449;-71
2024/03/10 01:38:10;;;;;;;15.37;8.73;;;9.80;63.50;;;;;;5119207;28;20196;-72
2024/03/10 01:40:36;;;;;;;11.90;8.93;;;9.80;63.40;;;;;;5116306;28;20217;-72
2024/03/10 01:43:02;;;;;;;10.40;8.10;;;9.80;63.60;;;;;;5096348;28;20278;-69
2024/03/10 01:45:28;;;;;;;12.03;7.63;;;9.80;63.60;;;;;;5097581;28;20406;-71
2024/03/10 01:47:55;;;;;;;11.50;8.20;;;9.80;63.40;;;;;;5094771;28;20783;-72
2024/03/10 01:50:21;;;;;;;10.53;7.73;;;9.80;63.30;;;;;;5105488;28;20211;-70
2024/03/10 01:52:47;;;;;;;12.80;8.30;;;9.80;63.30;;;;;;5117627;28;20406;-70
2024/03/10 01:55:15;;;;;;;11.40;8.90;;;9.80;63.20;;;;;;5101981;28;20196;-69
2024/03/10 01:57:42;;;;;;;12.83;9.43;;;9.80;63.10;;;;;;5107122;28;20433;-69
2024/03/10 02:00:10;;;;;;;11.30;7.80;;;9.80;63.20;;;;;;5111560;28;20459;-70
2024/03/10 02:02:40;;;;;;;14.60;7.93;;;9.80;63.20;;;;;;5113444;28;20942;-70
2024/03/10 02:05:06;;;;;;;9.90;7.30;;;9.80;63.30;;;;;;5101160;28;20417;-71
2024/03/10 02:07:32;;;;;;;13.77;8.33;;;9.70;63.50;;;;;;5108238;28;20461;-72
2024/03/10 02:09:58;;;;;;;10.70;7.90;;;9.70;63.70;;;;;;5122847;28;20417;-70
2024/03/10 02:12:24;;;;;;;11.73;8.10;;;9.70;63.80;;;;;;5115072;28;20180;-70
2024/03/10 02:14:57;;;;;;;11.50;8.00;;;9.70;63.90;;;;;;5109143;28;20481;-70
2024/03/10 02:17:25;;;;;;;11.30;9.23;;;9.70;63.80;;;;;;5112917;28;20482;-71
2024/03/10 02:19:52;;;;;;;12.20;8.53;;;9.60;63.80;;;;;;5121668;28;20745;-72
2024/03/10 02:22:21;;;;;;;12.60;8.40;;;9.60;63.70;;;;;;5105279;28;20475;-70
2024/03/10 02:24:49;;;;;;;10.87;8.23;;;9.70;63.50;;;;;;5104313;28;20402;-71
2024/03/10 02:27:17;;;;;;;11.23;7.43;;;9.70;63.70;;;;;;5103974;28;20504;-71
2024/03/10 02:48:55;;;;;;;11.33;8.00;;;9.70;64.10;;;;;;5099623;28;20420;-70
2024/03/10 02:51:21;;;;;;;10.83;7.40;;;9.60;64.00;;;;;;5098425;28;20541;-72
2024/03/10 02:53:47;;;;;;;8.23;6.27;;;9.60;64.30;;;;;;5098138;28;20611;-69
2024/03/10 02:56:13;;;;;;;11.40;7.40;;;9.60;64.40;;;;;;5089123;28;20451;-70
2024/03/10 02:58:39;;;;;;;8.73;7.20;;;9.60;64.40;;;;;;5102582;28;20245;-71
2024/03/10 03:01:07;;;;;;;8.47;5.70;;;9.60;64.40;;;;;;5096903;28;20510;-71
2024/03/10 03:03:34;;;;;;;10.83;7.60;;;9.60;64.50;;;;;;5097949;28;20461;-68
2024/03/10 03:06:00;;;;;;;8.80;7.10;;;9.60;64.30;;;;;;5100136;28;20549;-70
2024/03/10 03:08:26;;;;;;;10.83;7.80;;;9.70;64.30;;;;;;5086071;28;20403;-71
2024/03/10 03:10:52;;;;;;;9.67;7.27;;;9.70;64.10;;;;;;5108739;28;20429;-70
2024/03/10 03:13:18;;;;;;;10.73;7.50;;;9.80;64.20;;;;;;5103814;28;20431;-72
2024/03/10 03:15:43;;;;;;;9.80;7.07;;;9.80;64.10;;;;;;5105583;28;20224;-69
2024/03/10 03:18:09;;;;;;;9.90;7.07;;;9.80;64.10;;;;;;5110246;28;20202;-69
2024/03/10 03:20:35;;;;;;;9.50;6.50;;;9.70;64.10;;;;;;5100004;28;20658;-70
2024/03/10 03:23:04;;;;;;;9.30;7.00;;;9.70;64.00;;;;;;5118773;28;20214;-69
2024/03/10 03:25:30;;;;;;;9.90;6.37;;;9.80;63.90;;;;;;5108890;28;20616;-69
2024/03/10 03:27:55;;;;;;;8.50;6.77;;;9.80;63.90;;;;;;5111374;28;20390;-69
2024/03/10 03:30:22;;;;;;;9.83;4.93;;;9.80;63.80;;;;;;5106665;28;20316;-68
2024/03/10 03:32:48;;;;;;;8.03;5.90;;;9.80;63.80;;;;;;5113739;28;20183;-70
2024/03/10 03:35:17;;;;;;;9.10;6.30;;;9.80;63.90;;;;;;5095827;28;20884;-68
2024/03/10 03:37:43;;;;;;;7.97;5.87;;;9.80;64.10;;;;;;5111785;28;20493;-69
2024/03/10 03:40:09;;;;;;;9.47;6.60;;;9.70;64.10;;;;;;5106117;28;20488;-70
2024/03/10 03:42:35;;;;;;;9.97;7.40;;;9.60;64.10;;;;;;5106551;28;20502;-69
2024/03/10 03:45:04;;;;;;;8.30;7.00;;;9.70;64.10;;;;;;5120675;28;20414;-70
2024/03/10 03:47:31;;;;;;;8.90;6.43;;;9.80;63.80;;;;;;5116889;28;20218;-70
2024/03/10 03:49:56;;;;;;;9.20;6.20;;;9.90;63.60;;;;;;5120119;28;20893;-69
2024/03/10 03:52:22;;;;;;;9.63;6.00;;;10.00;62.20;;;;;;5121151;28;20636;-71
2024/03/10 03:54:48;;;;;;;7.47;5.90;;;10.00;62.10;;;;;;5101728;28;20188;-71
2024/03/10 03:57:14;;;;;;;7.77;5.60;;;10.00;62.00;;;;;;5118401;28;20220;-69
2024/03/10 03:59:41;;;;;;;8.27;6.60;;;10.10;61.90;;;;;;5119538;28;20474;-70
2024/03/10 04:02:07;;;;;;;9.50;6.83;;;10.10;62.70;;;;;;5120137;28;20457;-69
2024/03/10 04:04:33;;;;;;;9.67;5.93;;;10.10;61.90;;;;;;5114802;28;20937;-69
2024/03/10 04:06:59;;;;;;;8.33;6.50;;;10.10;61.70;;;;;;5117920;28;20445;-68
2024/03/10 04:09:25;;;;;;;10.20;5.67;;;10.20;61.60;;;;;;5119458;28;20697;-70
2024/03/10 04:11:50;;;;;;;9.87;6.90;;;10.10;61.60;;;;;;5121246;28;20657;-69
2024/03/10 04:14:16;;;;;;;9.03;6.63;;;10.10;61.80;;;;;;5087574;28;20283;-70
2024/03/10 04:16:44;;;;;;;8.37;6.40;;;10.00;61.80;;;;;;5120444;28;20219;-71
2024/03/10 04:19:11;;;;;;;8.50;6.93;;;10.10;61.90;;;;;;5116864;28;20508;-69
2024/03/10 04:21:37;;;;;;;7.83;5.87;;;10.10;61.90;;;;;;5117919;28;20701;-70
2024/03/10 04:24:07;;;;;;;11.00;6.17;;;10.10;61.90;;;;;;5115356;27;20465;-70
2024/03/10 04:26:33;;;;;;;7.60;6.20;;;10.00;62.00;;;;;;5124707;27;20784;-70
2024/03/10 04:28:59;;;;;;;9.60;6.00;;;10.00;62.20;;;;;;5126736;28;20447;-70
2024/03/10 04:31:25;;;;;;;9.33;6.03;;;10.00;62.40;;;;;;5121295;28;20457;-69
2024/03/10 04:33:51;;;;;;;9.27;6.20;;;10.00;62.30;;;;;;5099398;28;20441;-69
2024/03/10 04:36:18;;;;;;;7.30;5.97;;;10.00;62.40;;;;;;5119774;28;20606;-70
2024/03/10 04:38:44;;;;;;;10.53;5.80;;;9.90;63.70;;;;;;5118113;28;20417;-68
2024/03/10 04:41:10;;;;;;;7.73;5.77;;;10.00;62.40;;;;;;5104397;28;20457;-69
2024/03/10 04:43:38;;;;;;;8.67;5.93;;;10.00;62.50;;;;;;5103251;28;20231;-70
2024/03/10 04:46:04;;;;;;;9.83;7.40;;;9.90;63.70;;;;;;5104830;28;20446;-71
2024/03/10 04:48:31;;;;;;;9.33;6.90;;;9.90;63.70;;;;;;5084565;28;20420;-69
2024/03/10 04:50:57;;;;;;;8.07;5.47;;;9.90;64.00;;;;;;5108107;28;20433;-71
2024/03/10 04:53:22;;;;;;;9.70;7.00;;;9.90;64.00;;;;;;5105678;28;20411;-70
2024/03/10 04:55:48;;;;;;;8.83;6.33;;;9.80;64.10;;;;;;5104700;28;20219;-70
2024/03/10 04:58:15;;;;;;;7.23;5.77;;;9.80;64.40;;;;;;5088224;28;20538;-69
2024/03/10 05:00:42;;;;;;;9.40;6.90;;;9.80;64.40;;;;;;5108560;28;20188;-70
2024/03/10 05:03:10;;;;;;;8.23;5.60;;;9.70;64.60;;;;;;5097781;28;20442;-70
2024/03/10 05:05:36;;;;;;;9.13;6.20;;;9.70;64.80;;;;;;5116376;28;20437;-70
2024/03/10 05:08:01;;;;;;;9.33;6.93;;;9.60;64.90;;;;;;5111156;28;20418;-68
2024/03/10 05:10:27;;;;;;;9.87;6.63;;;9.60;65.20;;;;;;5104226;28;20431;-70
2024/03/10 05:12:53;;;;;;;8.20;6.20;;;9.60;65.10;;;;;;5092033;28;20211;-69
2024/03/10 05:15:18;;;;;;;9.80;5.60;;;9.60;65.10;;;;;;5109166;28;20184;-69
2024/03/10 05:17:44;;;;;;;8.77;5.97;;;9.60;65.10;;;;;;5102610;28;20290;-69
2024/03/10 05:20:11;;;;;;;8.57;5.87;;;9.60;65.10;;;;;;5088337;28;20558;-69
2024/03/10 05:22:36;;;;;;;7.87;6.87;;;9.60;65.40;;;;;;5108727;28;20212;-70
2024/03/10 05:25:02;;;;;;;7.70;6.30;;;9.60;65.50;;;;;;5111972;28;20418;-68
2024/03/10 05:27:29;;;;;;;8.37;6.53;;;9.50;65.60;;;;;;5109662;28;20484;-72
2024/03/10 05:29:54;;;;;;;10.60;5.53;;;9.50;65.90;;;;;;5093217;28;20426;-71
2024/03/10 05:32:20;;;;;;;10.50;7.57;;;9.40;66.10;;;;;;5099202;28;20426;-71
2024/03/10 05:34:46;;;;;;;7.47;5.70;;;9.50;66.20;;;;;;5091349;28;20199;-72
2024/03/10 05:37:12;;;;;;;10.73;7.97;;;9.40;66.10;;;;;;5099680;28;20445;-68
2024/03/10 05:39:38;;;;;;;11.03;7.20;;;9.50;67.20;;;;;;5106099;28;20410;-70
2024/03/10 05:42:05;;;;;;;9.93;6.93;;;9.50;66.20;;;;;;5096706;28;20434;-70
2024/03/10 05:44:36;;;;;;;12.33;7.33;;;9.40;66.30;;;;;;5099392;28;20586;-69
2024/03/10 05:47:01;;;;;;;7.50;6.37;;;9.40;66.50;;;;;;5093731;28;20442;-73
2024/03/10 05:49:28;;;;;;;9.70;6.87;;;9.40;66.50;;;;;;5095968;28;20422;-69
2024/03/10 05:51:54;;;;;;;8.20;6.30;;;9.40;67.60;;;;;;5102075;28;20192;-70
2024/03/10 05:54:21;;;;;;;8.97;6.13;;;9.30;66.80;;;;;;5078558;28;20504;-70
2024/03/10 05:56:47;;;;;;;9.63;6.83;;;9.30;67.10;;;;;;5096670;28;20294;-69
2024/03/10 05:59:13;;;;;;;8.63;6.53;;;9.20;67.10;;;;;;5102822;28;21056;-70
2024/03/10 06:01:42;;;;;;;10.30;7.20;;;9.20;67.40;;;;;;5095271;28;20429;-69
2024/03/10 06:04:08;;;;;;;11.73;6.33;;;9.10;67.60;;;;;;5097483;28;20912;-69
2024/03/10 06:06:34;;;;;;;8.10;6.20;;;9.00;67.80;;;;;;5096906;28;20517;-68
2024/03/10 06:09:00;;;;;;;7.23;5.60;;;9.00;68.10;;;;;;5097278;28;20881;-70
2024/03/10 06:11:26;;;;;;;10.00;6.50;;;9.00;68.30;;;;;;5095965;28;20192;-69
2024/03/10 06:13:51;;;;;;;9.70;6.77;;;8.90;68.40;;;;;;5097082;28;20183;-69
2024/03/10 06:16:17;;;;;;;7.30;6.50;;;8.90;68.60;;;;;;5095506;28;20454;-69
2024/03/10 06:26:55;;;;;;;9.30;6.33;;;9.00;69.70;;;;;;5095752;28;20533;-69
2024/03/10 06:29:24;;;;;;;8.20;6.27;;;9.00;68.70;;;;;;5101216;28;20473;-69
2024/03/10 06:31:50;;;;;;;11.40;6.97;;;9.10;68.80;;;;;;5100080;28;20419;-70
2024/03/10 06:34:17;;;;;;;10.63;7.20;;;9.10;68.80;;;;;;5095767;28;21494;-70
2024/03/10 06:36:43;;;;;;;9.70;6.93;;;9.10;68.60;;;;;;5097018;28;20437;-68
2024/03/10 06:39:09;;;;;;;9.20;6.60;;;9.20;68.60;;;;;;5097331;28;20445;-69
2024/03/10 06:41:35;;;;;;;9.20;6.50;;;9.20;68.50;;;;;;5101896;28;20442;-69
2024/03/10 06:44:01;;;;;;;9.47;6.50;;;9.20;68.60;;;;;;5081701;28;20537;-70
2024/03/10 06:46:27;;;;;;;10.50;7.40;;;9.20;68.40;;;;;;5108495;28;20217;-70
2024/03/10 06:48:53;;;;;;;9.67;7.40;;;9.20;68.40;;;;;;5106963;28;20404;-69
2024/03/10 06:51:21;;;;;;;8.10;6.13;;;9.30;68.50;;;;;;5096646;28;21186;-70
2024/03/10 06:53:47;;;;;;;8.93;6.63;;;9.30;68.60;;;;;;5097919;28;20215;-70
2024/03/10 06:56:14;;;;;;;8.70;6.30;;;9.20;68.60;;;;;;5101909;28;20438;-68
2024/03/10 06:58:46;;;;;;;8.20;6.23;;;9.30;68.60;;;;;;5100510;28;20192;-70
2024/03/10 07:01:11;;;;;;;10.23;7.47;;;9.30;68.40;;;;;;5105442;28;20418;-70
2024/03/10 07:03:37;;;;;;;9.17;6.20;;;9.40;68.40;;;;;;5103253;28;20467;-71
2024/03/10 07:06:04;;;;;;;8.87;6.70;;;9.40;68.30;;;;;;5116099;28;20282;-71
2024/03/10 07:08:30;;;;;;;8.30;6.30;;;9.40;68.20;;;;;;5109676;28;20181;-72
2024/03/10 07:10:58;;;;;;;9.20;7.03;;;9.50;68.30;;;;;;5100728;28;20427;-71
2024/03/10 07:13:23;;;;;;;8.30;6.83;;;9.50;68.20;;;;;;5104874;28;20456;-70
2024/03/10 07:15:49;;;;;;;8.53;6.40;;;9.50;68.20;;;;;;5108009;28;20756;-71
2024/03/10 07:18:15;;;;;;;14.27;6.73;;;9.50;68.20;;;;;;5094570;28;20291;-71
2024/03/10 07:20:41;;;;;;;6.23;5.50;;;9.60;68.30;;;;;;5101867;28;20210;-70
2024/03/10 07:23:06;;;;;;;11.27;6.40;;;9.60;68.20;;;;;;5112251;28;20212;-70
2024/03/10 07:25:32;;;;;;;8.33;6.27;;;9.60;68.00;;;;;;5111562;28;20530;-69
2024/03/10 07:27:57;;;;;;;9.17;6.80;;;9.70;68.00;;;;;;5112924;28;20188;-69
2024/03/10 07:30:23;;;;;;;9.50;6.30;;;9.80;67.60;;;;;;5108446;28;20263;-70
2024/03/10 07:32:49;;;;;;;11.27;7.50;;;9.80;67.50;;;;;;5109006;28;20191;-69
2024/03/10 07:35:16;;;;;;;8.90;6.77;;;9.80;67.20;;;;;;5118843;28;20494;-69
2024/03/10 07:37:44;;;;;;;8.70;6.40;;;9.90;67.00;;;;;;5109367;28;20293;-69
2024/03/10 07:40:19;;;;;;;10.60;7.90;;;10.00;65.70;;;;;;5108607;28;20454;-72
2024/03/10 07:42:48;;;;;;;9.77;7.00;;;10.00;65.40;;;;;;5100799;28;20744;-70
2024/03/10 07:45:18;;;;;;;11.20;7.20;;;10.10;65.20;;;;;;5098788;28;20429;-72
2024/03/10 07:47:45;;;;;;;11.03;6.97;;;10.20;65.00;;;;;;5097751;28;20433;-70
2024/03/10 07:50:12;;;;;;;10.03;7.77;;;10.20;64.90;;;;;;5111380;28;20421;-71
2024/03/10 07:52:39;;;;;;;8.53;6.40;;;10.30;64.80;;;;;;5105466;28;20414;-70
2024/03/10 07:55:06;;;;;;;11.43;7.83;;;10.30;64.70;;;;;;5103089;28;20411;-71
2024/03/10 07:57:35;;;;;;;9.50;6.90;;;10.40;64.50;;;;;;5107505;28;20439;-70
2024/03/10 08:00:06;;;;;;;10.10;6.63;;;10.40;64.40;;;;;;5088649;28;20457;-70
2024/03/10 08:02:32;;;;;;;9.33;6.67;;;10.50;64.50;;;;;;5098693;28;20458;-71
2024/03/10 08:04:58;;;;;;;12.43;8.13;;;10.60;64.00;;;;;;5080663;28;20829;-70
2024/03/10 08:07:24;;;;;;;9.50;6.90;;;10.70;63.70;;;;;;5101678;28;20434;-71
2024/03/10 08:09:49;;;;;;;8.03;7.20;;;10.70;63.60;;;;;;5097761;28;20498;-68
2024/03/10 08:12:15;;;;;;;10.90;7.47;;;10.80;63.60;;;;;;5088175;28;20454;-69
2024/03/10 08:14:41;;;;;;;10.87;7.87;;;10.80;63.40;;;;;;5107262;28;20469;-70
2024/03/10 08:17:07;;;;;;;9.30;6.60;;;10.90;63.30;;;;;;5106576;28;20204;-70
2024/03/10 08:19:32;;;;;;;9.43;7.00;;;11.00;63.40;;;;;;5102095;28;20231;-70
2024/03/10 08:21:58;;;;;;;11.90;8.00;;;11.10;62.90;;;;;;5100347;28;20190;-71
2024/03/10 08:24:26;;;;;;;9.43;7.47;;;11.20;62.50;;;;;;5091243;28;20183;-71
2024/03/10 08:26:52;;;;;;;9.40;7.70;;;11.30;61.60;;;;;;5109003;28;20437;-69
2024/03/10 08:29:17;;;;;;;8.90;7.23;;;11.40;60.70;;;;;;5077873;28;20443;-69
2024/03/10 08:31:43;;;;;;;11.27;7.90;;;11.40;60.50;;;;;;5097353;28;20426;-71
2024/03/10 08:34:09;;;;;;;12.87;7.93;;;11.60;60.20;;;;;;5073420;28;20201;-69
2024/03/10 08:36:39;;;;;;;8.70;6.73;;;11.50;60.70;;;;;;5095045;28;20511;-73
2024/03/10 08:39:09;;;;;;;10.63;7.10;;;11.50;60.20;;;;;;5113188;28;20207;-69
2024/03/10 08:41:35;;;;;;;9.80;7.37;;;11.60;60.20;;;;;;5110005;28;20446;-68
2024/03/10 08:44:03;;;;;;;10.80;7.43;;;11.60;59.90;;;;;;5095821;28;20562;-70
2024/03/10 08:46:29;;;;;;;9.33;7.30;;;11.60;60.00;;;;;;5107758;28;20526;-70
2024/03/10 08:48:55;;;;;;;8.87;6.80;;;11.60;60.10;;;;;;5094507;28;20445;-71
2024/03/10 08:51:20;;;;;;;11.23;7.90;;;11.70;60.40;;;;;;5105116;28;20399;-71
2024/03/10 08:53:46;;;;;;;10.03;7.90;;;11.90;59.90;;;;;;5096796;28;20201;-72
2024/03/10 08:56:14;;;;;;;8.60;7.17;;;12.00;59.70;;;;;;5120516;28;20203;-70
2024/03/10 08:58:39;;;;;;;9.90;7.90;;;12.10;59.50;;;;;;5108018;28;20184;-71
2024/03/10 09:01:05;;;;;;;6.93;6.00;;;12.30;59.10;;;;;;5090466;28;20765;-70
2024/03/10 09:03:32;;;;;;;10.43;8.03;;;12.50;58.70;;;;;;5096486;28;20256;-73
2024/03/10 09:05:58;;;;;;;8.70;6.90;;;12.70;58.50;;;;;;5092658;28;20681;-72
2024/03/10 09:08:24;;;;;;;9.23;7.60;;;12.80;57.90;;;;;;5102410;28;20491;-69
2024/03/10 09:10:50;;;;;;;9.87;7.13;;;12.90;57.70;;;;;;5108712;28;20401;-70
2024/03/10 09:13:16;;;;;;;9.70;7.80;;;13.00;57.20;;;;;;5090549;28;20184;-71
2024/03/10 09:15:43;;;;;;;9.80;7.60;;;12.90;56.60;;;;;;5101797;28;20506;-73
2024/03/10 09:18:08;;;;;;;10.00;7.60;;;12.90;57.10;;;;;;5105391;28;20419;-71
2024/03/10 09:20:34;;;;;;;9.40;7.53;;;12.90;56.80;;;;;;5110793;28;20426;-71
2024/03/10 09:23:01;;;;;;;10.33;7.70;;;12.90;56.80;;;;;;5083702;28;20492;-71
2024/03/10 09:25:30;;;;;;;7.50;6.60;;;12.90;56.70;;;;;;5098632;28;20503;-72
2024/03/10 09:27:56;;;;;;;10.10;7.70;;;12.90;56.70;;;;;;5110997;28;20432;-75
2024/03/10 09:30:28;;;;;;;10.50;7.60;;;12.90;56.90;;;;;;5099530;28;20416;-72
2024/03/10 09:32:54;;;;;;;10.73;7.77;;;12.90;56.70;;;;;;5088596;28;20609;-71
2024/03/10 09:35:23;;;;;;;9.70;7.60;;;13.00;56.60;;;;;;5116424;28;20436;-69
2024/03/10 09:38:00;;;;;;;20.33;7.90;;;13.00;56.20;;;;;;5108032;28;20219;-73
2024/03/10 09:40:29;;;;;;;9.20;7.50;;;13.20;56.40;;;;;;5097692;28;20452;-71
2024/03/10 09:42:56;;;;;;;8.40;6.87;;;13.40;55.90;;;;;;5117299;28;20469;-74
2024/03/10 09:45:24;;;;;;;12.37;7.93;;;13.50;55.30;;;;;;5090668;28;20420;-74
2024/03/10 09:47:50;;;;;;;7.80;6.97;;;13.60;55.00;;;;;;5102843;28;20916;-72
2024/03/10 09:50:22;;;;;;;9.90;6.87;;;13.70;54.50;;;;;;5115945;28;20434;-70
2024/03/10 09:52:51;;;;;;;9.50;7.67;;;13.80;54.50;;;;;;5115383;28;20778;-71
2024/03/10 09:55:20;;;;;;;9.20;7.03;;;13.80;54.00;;;;;;5116884;28;20422;-74
2024/03/10 09:57:49;;;;;;;8.77;6.83;;;13.80;54.10;;;;;;5119873;28;20440;-74
2024/03/10 10:00:16;;;;;;;8.40;6.93;;;13.90;54.10;;;;;;5115397;28;20492;-72
2024/03/10 10:02:43;;;;;;;10.00;7.17;;;14.00;54.30;;;;;;5104603;28;20489;-71
2024/03/10 10:05:20;;;;;;;10.87;7.70;;;14.10;53.50;;;;;;5107672;28;20417;-75
2024/03/10 10:07:46;;;;;;;8.10;6.57;;;14.30;52.70;;;;;;5117023;28;20433;-72
2024/03/10 10:10:12;;;;;;;9.77;7.03;;;14.30;52.20;;;;;;5119583;28;20398;-71
2024/03/10 10:12:41;;;;;;;8.60;6.63;;;14.30;52.20;;;;;;5120622;28;20194;-72
2024/03/10 10:15:07;;;;;;;12.17;8.83;;;14.30;52.40;;;;;;5123740;28;20419;-71
2024/03/10 10:17:33;;;;;;;9.73;7.37;;;14.20;52.20;;;;;;5079345;28;21052;-72
2024/03/10 10:19:59;;;;;;;9.13;7.80;;;14.20;52.20;;;;;;5103636;28;20511;-71
2024/03/10 10:22:25;;;;;;;8.50;7.30;;;14.00;52.20;;;;;;5103775;28;20462;-69
2024/03/10 10:25:02;;;;;;;8.97;7.07;;;13.90;52.60;;;;;;5116710;28;20402;-70
2024/03/10 10:27:28;;;;;;;8.77;6.70;;;13.90;52.70;;;;;;5118695;28;20451;-71
2024/03/10 10:29:54;;;;;;;8.97;7.57;;;14.10;52.50;;;;;;5126952;28;20790;-73
2024/03/10 10:32:22;;;;;;;9.33;7.33;;;14.30;52.40;;;;;;5107414;28;20187;-72
2024/03/10 10:34:51;;;;;;;8.57;7.00;;;14.30;51.90;;;;;;5114348;28;20417;-71
2024/03/10 10:37:17;;;;;;;9.83;7.10;;;14.40;52.20;;;;;;5115895;28;20445;-72
2024/03/10 10:39:43;;;;;;;10.07;7.73;;;14.50;52.00;;;;;;5117343;28;20424;-71
2024/03/10 10:42:09;;;;;;;8.50;6.67;;;14.50;52.20;;;;;;5121281;28;20192;-71
2024/03/10 10:44:35;;;;;;;8.77;6.97;;;14.40;51.70;;;;;;5124990;28;20210;-73
2024/03/10 10:47:01;;;;;;;8.83;7.27;;;14.50;51.70;;;;;;5125617;28;20471;-74
2024/03/10 10:49:29;;;;;;;8.93;7.03;;;14.50;51.50;;;;;;5091174;28;20529;-72
2024/03/10 10:51:56;;;;;;;7.73;6.50;;;14.70;51.60;;;;;;5118145;28;20195;-71
2024/03/10 10:54:23;;;;;;;9.30;8.20;;;14.60;51.10;;;;;;5124725;28;20424;-73
2024/03/10 10:56:55;;;;;;;9.03;7.30;;;14.60;51.20;;;;;;5126139;28;20449;-70
2024/03/10 10:59:24;;;;;;;7.63;6.70;;;14.60;51.50;;;;;;5119262;28;20470;-74
2024/03/10 11:02:05;;;;;;;7.83;6.53;;;14.50;51.50;;;;;;5125249;28;20406;-71
2024/03/10 11:04:31;;;;;;;10.60;7.77;;;14.60;51.40;;;;;;5099854;28;20409;-72
2024/03/10 11:06:57;;;;;;;8.77;6.73;;;14.80;51.20;;;;;;5124457;28;20444;-70
2024/03/10 11:09:33;;;;;;;7.57;6.80;;;14.90;50.80;;;;;;5125003;27;20199;-71
2024/03/10 11:12:21;;;;;;;8.50;7.60;;;14.90;50.80;;;;;;5122788;28;20409;-73
2024/03/10 11:14:51;;;;;;;8.60;6.50;;;15.00;50.80;;;;;;5123376;28;20769;-72
2024/03/10 11:17:20;;;;;;;8.43;7.47;;;15.10;50.70;;;;;;5123783;28;20445;-73
2024/03/10 11:19:48;;;;;;;9.57;7.40;;;15.30;50.00;;;;;;5124808;28;20437;-75
2024/03/10 11:22:17;;;;;;;10.60;8.70;;;15.30;49.90;;;;;;5124210;28;20405;-72
2024/03/10 11:25:03;;;;;;;7.23;6.30;;;15.40;50.10;;;;;;5123735;28;20405;-71
2024/03/10 11:27:31;;;;;;;8.17;6.13;;;15.50;50.30;;;;;;5121182;28;20493;-73
2024/03/10 11:29:57;;;;;;;8.43;6.67;;;15.70;50.00;;;;;;5126887;28;20460;-74
2024/03/10 11:32:27;;;;;;;8.30;7.00;;;15.80;49.40;;;;;;5126811;28;20407;-74
2024/03/10 11:34:55;;;;;;;7.73;6.93;;;15.80;49.50;;;;;;5124735;28;20192;-75
2024/03/10 11:37:21;;;;;;;10.07;7.50;;;16.00;49.60;;;;;;5124674;28;20446;-72
2024/03/10 11:39:47;;;;;;;6.80;5.93;;;16.20;49.00;;;;;;5101245;28;20457;-73
2024/03/10 11:42:16;;;;;;;8.33;6.33;;;16.30;48.80;;;;;;5107154;28;20426;-74
2024/03/10 11:44:41;;;;;;;7.13;6.43;;;16.50;48.50;;;;;;5116533;27;20701;-73
2024/03/10 11:47:11;;;;;;;5.00;4.50;;;16.60;48.60;;;;;;5109908;28;20453;-73
2024/03/10 11:49:37;;;;;;;6.37;5.50;;;16.80;48.50;;;;;;5073343;28;20512;-73
2024/03/10 11:52:06;;;;;;;8.00;5.93;;;16.90;48.30;;;;;;5097976;28;20861;-74
2024/03/10 11:54:32;;;;;;;9.87;7.40;;;17.00;47.90;;;;;;5118585;28;20423;-72
2024/03/10 11:56:59;;;;;;;8.27;6.43;;;17.00;47.80;;;;;;5117707;28;20460;-72
2024/03/10 11:59:25;;;;;;;6.60;5.87;;;16.90;47.60;;;;;;5106823;28;20195;-74
2024/03/10 12:01:51;;;;;;;10.70;8.83;;;16.90;47.90;;;;;;5121852;28;20708;-74
2024/03/10 12:04:20;;;;;;;7.17;6.23;;;16.80;47.90;;;;;;5109859;28;20488;-73
2024/03/10 12:06:46;;;;;;;6.57;5.63;;;16.80;47.80;;;;;;5113461;28;20517;-74
2024/03/10 12:09:12;;;;;;;8.03;7.00;;;16.90;48.00;;;;;;5092198;28;20425;-70
2024/03/10 12:11:42;;;;;;;8.30;6.07;;;17.00;47.80;;;;;;5118565;28;20434;-73
2024/03/10 12:14:08;;;;;;;8.87;6.57;;;17.20;46.60;;;;;;5121527;28;20199;-73
2024/03/10 12:16:35;;;;;;;9.63;6.90;;;17.20;46.10;;;;;;5119024;28;20540;-73
2024/03/10 12:19:01;;;;;;;7.63;6.50;;;17.20;45.80;;;;;;5109607;28;20433;-74
2024/03/10 12:21:29;;;;;;;8.40;6.80;;;17.40;45.50;;;;;;5097628;28;20946;-74
2024/03/10 12:23:58;;;;;;;8.33;7.40;;;17.30;45.30;;;;;;5109365;28;20226;-72
2024/03/10 12:26:24;;;;;;;8.57;6.70;;;17.40;44.90;;;;;;5117141;28;20437;-73
2024/03/10 12:28:50;;;;;;;6.90;6.20;;;17.20;44.70;;;;;;5096975;28;20505;-72
2024/03/10 12:31:20;;;;;;;8.70;7.00;;;17.20;44.80;;;;;;5120794;28;20490;-75
2024/03/10 12:33:46;;;;;;;8.93;7.47;;;17.10;44.90;;;;;;5106813;28;20206;-72
2024/03/10 12:36:12;;;;;;;9.00;7.57;;;17.20;44.90;;;;;;5114673;28;20453;-72
2024/03/10 12:38:42;;;;;;;7.43;6.60;;;17.10;44.60;;;;;;5119362;28;20436;-71
2024/03/10 12:41:12;;;;;;;10.87;8.53;;;17.10;44.90;;;;;;5114898;28;20460;-73
2024/03/10 12:43:40;;;;;;;10.63;7.50;;;17.00;44.80;;;;;;5123701;28;20460;-75
2024/03/10 12:46:07;;;;;;;8.03;6.80;;;17.00;45.30;;;;;;5125918;28;20456;-76
2024/03/10 12:48:33;;;;;;;6.80;6.10;;;17.00;45.70;;;;;;5115539;28;20421;-72
2024/03/10 12:50:59;;;;;;;8.00;6.17;;;17.10;45.70;;;;;;5127544;28;20414;-72
2024/03/10 12:53:25;;;;;;;5.93;5.07;;;17.10;45.50;;;;;;5128718;28;20349;-74
2024/03/10 12:55:51;;;;;;;7.37;5.93;;;17.20;45.70;;;;;;5116763;28;20220;-74
2024/03/10 12:58:17;;;;;;;7.70;6.83;;;17.30;45.50;;;;;;5098628;28;20403;-74
2024/03/10 13:00:43;;;;;;;8.00;7.03;;;17.50;44.50;;;;;;5127648;28;20186;-73
2024/03/10 13:03:10;;;;;;;7.30;6.13;;;17.50;44.40;;;;;;5113557;28;20472;-71
2024/03/10 13:05:36;;;;;;;10.07;7.60;;;17.50;44.70;;;;;;5112199;28;20188;-74
2024/03/10 13:08:02;;;;;;;10.30;6.37;;;17.60;44.30;;;;;;5123976;28;20464;-71
2024/03/10 13:10:32;;;;;;;10.53;6.67;;;17.70;42.80;;;;;;5123543;28;20504;-75
2024/03/10 13:12:58;;;;;;;8.73;6.87;;;17.60;42.20;;;;;;5105281;28;20457;-73